Time;durP1;ratioP1;P1;durP2;ratioP2;P2;SDS_P1;SDS_P2;PMS_P1;PMS_P2;Temp;Humidity;BMP_temperature;BMP_pressure;BME280_temperature;BME280_humidity;BME280_pressure;Samples;Min_cycle;Max_cycle;Signal;HPM_P1;HPM_P2
2023/01/27 00:00:12;;;;;;;25.75;11.77;;;;;;;;;;4955715;28;20480;-91
2023/01/27 00:02:39;;;;;;;21.90;11.45;;;;;;;;;;4965362;28;20365;-90
2023/01/27 00:05:08;;;;;;;23.00;11.65;;;;;;;;;;4958731;28;20031;-88
2023/01/27 00:07:48;;;;;;;20.33;10.88;;;;;;;;;;4955349;28;20027;-91
2023/01/27 00:10:15;;;;;;;22.58;11.20;;;;;;;;;;4955356;28;20030;-87
2023/01/27 00:15:27;;;;;;;23.00;11.95;;;;;;;;;;4976532;28;20041;-91
2023/01/27 00:17:53;;;;;;;31.27;14.60;;;;;;;;;;4968099;28;20029;-86
2023/01/27 00:24:34;;;;;;;29.35;14.35;;;;;;;;;;4960003;28;20034;-87
2023/01/27 00:25:57;;;;;;;28.73;14.85;;;;;;;;;;4973102;28;20321;-88
2023/01/27 00:28:24;;;;;;;32.05;15.40;;;;;;;;;;4955520;28;20027;-89
2023/01/27 00:30:50;;;;;;;30.17;15.23;;;;;;;;;;4955762;28;20081;-87
2023/01/27 00:33:28;;;;;;;30.60;14.77;;;;;;;;;;4956273;28;20023;-87
2023/01/27 00:36:05;;;;;;;31.45;14.98;;;;;;;;;;4955642;28;20476;-87
2023/01/27 00:38:42;;;;;;;28.73;14.77;;;;;;;;;;4959588;28;20093;-90
2023/01/27 00:41:22;;;;;;;30.02;14.90;;;;;;;;;;4960178;28;20034;-91
2023/01/27 00:43:51;;;;;;;26.15;13.85;;;;;;;;;;4977552;28;20069;-90
2023/01/27 00:46:21;;;;;;;28.65;14.05;;;;;;;;;;4960699;28;20117;-86
2023/01/27 00:48:53;;;;;;;29.02;14.65;;;;;;;;;;4970588;28;20483;-86
2023/01/27 00:51:22;;;;;;;29.35;14.73;;;;;;;;;;4960447;28;20041;-89
2023/01/27 00:53:49;;;;;;;27.27;14.70;;;;;;;;;;4958438;28;20116;-87
2023/01/27 00:56:15;;;;;;;27.30;14.05;;;;;;;;;;4958810;28;20488;-87
2023/01/27 00:58:41;;;;;;;29.75;14.80;;;;;;;;;;4976154;28;20550;-87
2023/01/27 01:01:14;;;;;;;24.20;13.48;;;;;;;;;;4958655;28;20476;-90
2023/01/27 01:03:41;;;;;;;25.40;12.85;;;;;;;;;;4958968;28;20113;-87
2023/01/27 01:06:08;;;;;;;29.27;14.70;;;;;;;;;;4958582;28;20540;-88
2023/01/27 01:08:37;;;;;;;34.60;17.83;;;;;;;;;;4958670;28;20026;-87
2023/01/27 01:14:01;;;;;;;32.67;15.73;;;;;;;;;;4888983;28;20085;-91
2023/01/27 01:16:28;;;;;;;26.80;13.90;;;;;;;;;;4958436;28;20049;-89
2023/01/27 01:18:54;;;;;;;26.92;13.90;;;;;;;;;;4958708;28;20458;-87
2023/01/27 01:21:20;;;;;;;29.45;14.45;;;;;;;;;;4958515;28;20029;-89
2023/01/27 01:23:46;;;;;;;30.73;14.23;;;;;;;;;;4958228;28;20026;-87
2023/01/27 01:26:18;;;;;;;25.98;13.20;;;;;;;;;;4958630;28;20027;-87
2023/01/27 01:28:48;;;;;;;26.40;13.57;;;;;;;;;;4958383;28;20035;-89
2023/01/27 01:31:16;;;;;;;27.23;13.85;;;;;;;;;;4958498;28;20027;-87
2023/01/27 01:33:46;;;;;;;25.33;13.27;;;;;;;;;;4975534;28;20030;-92
2023/01/27 01:36:16;;;;;;;24.95;13.15;;;;;;;;;;4957940;28;20046;-89
2023/01/27 01:38:46;;;;;;;24.83;12.23;;;;;;;;;;4958029;28;20034;-89
2023/01/27 01:41:17;;;;;;;23.75;12.73;;;;;;;;;;4958188;28;20031;-87
2023/01/27 01:43:43;;;;;;;22.65;12.05;;;;;;;;;;4958333;28;20027;-88
2023/01/27 01:46:13;;;;;;;26.90;12.60;;;;;;;;;;4960888;28;20039;-91
2023/01/27 01:48:48;;;;;;;23.75;12.68;;;;;;;;;;4961714;28;20027;-87
2023/01/27 01:51:26;;;;;;;24.42;11.52;;;;;;;;;;4958264;28;20042;-87
2023/01/27 01:53:58;;;;;;;20.60;11.20;;;;;;;;;;4959765;28;20045;-86
2023/01/27 01:56:34;;;;;;;21.83;11.63;;;;;;;;;;4972892;28;20042;-86
2023/01/27 01:59:09;;;;;;;20.98;10.57;;;;;;;;;;4959706;28;20058;-89
2023/01/27 02:01:36;;;;;;;21.67;10.50;;;;;;;;;;4966525;28;20069;-87
2023/01/27 02:04:07;;;;;;;23.00;11.60;;;;;;;;;;4960287;28;20046;-91
2023/01/27 02:06:43;;;;;;;23.45;12.40;;;;;;;;;;4957635;28;20019;-86
2023/01/27 02:09:09;;;;;;;22.13;11.85;;;;;;;;;;4957788;28;20050;-90
2023/01/27 02:11:36;;;;;;;25.95;12.55;;;;;;;;;;4956983;28;20019;-87
2023/01/27 02:14:05;;;;;;;21.08;11.35;;;;;;;;;;4956949;28;20109;-90
2023/01/27 02:16:37;;;;;;;23.58;12.20;;;;;;;;;;4956963;28;20042;-86
2023/01/27 02:19:10;;;;;;;24.42;11.77;;;;;;;;;;5500168;23;20028;-86
2023/01/27 02:21:36;;;;;;;23.95;11.15;;;;;;;;;;4937623;29;20023;-87
2023/01/27 02:24:11;;;;;;;25.55;13.02;;;;;;;;;;5218201;23;20038;-85
2023/01/27 02:26:46;;;;;;;24.52;12.73;;;;;;;;;;4994389;28;20429;-89
2023/01/27 02:29:17;;;;;;;23.83;12.27;;;;;;;;;;4977114;28;20026;-86
2023/01/27 02:31:43;;;;;;;24.00;12.13;;;;;;;;;;4977301;28;20550;-92
2023/01/27 02:34:14;;;;;;;22.88;11.48;;;;;;;;;;4977420;28;20045;-93
2023/01/27 02:36:43;;;;;;;26.33;12.57;;;;;;;;;;4977672;28;20491;-88
2023/01/27 02:39:14;;;;;;;23.95;12.45;;;;;;;;;;4984692;28;20022;-87
2023/01/27 02:41:49;;;;;;;25.52;12.40;;;;;;;;;;4988674;28;20037;-90
2023/01/27 02:44:15;;;;;;;27.95;13.75;;;;;;;;;;4976649;28;20038;-88
2023/01/27 02:46:47;;;;;;;26.67;14.00;;;;;;;;;;4976028;28;20151;-87
2023/01/27 02:49:16;;;;;;;24.75;12.80;;;;;;;;;;4976148;28;20023;-92
2023/01/27 02:51:45;;;;;;;23.42;11.98;;;;;;;;;;4975494;28;20049;-87
2023/01/27 02:54:11;;;;;;;24.98;13.35;;;;;;;;;;4975923;28;20030;-87
2023/01/27 02:56:37;;;;;;;28.20;14.13;;;;;;;;;;4975716;28;20096;-87
2023/01/27 02:59:06;;;;;;;25.33;13.27;;;;;;;;;;4975643;28;20034;-88
2023/01/27 03:01:33;;;;;;;25.60;13.88;;;;;;;;;;4975605;28;20058;-87
2023/01/27 03:03:59;;;;;;;24.30;13.60;;;;;;;;;;4974929;28;20030;-88
2023/01/27 03:06:25;;;;;;;26.48;14.18;;;;;;;;;;4975599;28;20022;-88
2023/01/27 03:08:51;;;;;;;24.63;13.18;;;;;;;;;;4975458;28;20052;-87
2023/01/27 03:14:14;;;;;;;24.48;13.27;;;;;;;;;;4992928;28;20029;-89
2023/01/27 03:19:25;;;;;;;25.77;14.02;;;;;;;;;;4993171;28;20057;-89
2023/01/27 03:21:55;;;;;;;26.55;13.60;;;;;;;;;;4975094;28;20479;-86
2023/01/27 03:24:21;;;;;;;25.63;13.80;;;;;;;;;;4974962;28;20650;-88
2023/01/27 03:26:47;;;;;;;28.00;14.52;;;;;;;;;;4975848;28;20507;-87
2023/01/27 03:32:07;;;;;;;25.63;14.63;;;;;;;;;;4992915;28;20113;-92
2023/01/27 03:34:33;;;;;;;27.33;14.13;;;;;;;;;;4975049;28;20030;-90
2023/01/27 03:48:04;;;;;;;23.38;12.05;;;;;;;;;;4993108;28;20041;-89
2023/01/27 03:50:36;;;;;;;23.33;11.85;;;;;;;;;;4975105;28;20116;-88
2023/01/27 03:53:02;;;;;;;22.10;11.88;;;;;;;;;;4982060;28;20041;-86
2023/01/27 03:55:32;;;;;;;24.15;11.90;;;;;;;;;;4979187;28;20038;-91
2023/01/27 03:58:17;;;;;;;21.48;10.82;;;;;;;;;;4976958;28;20030;-87
2023/01/27 04:00:50;;;;;;;19.33;10.90;;;;;;;;;;4980858;28;20034;-92
2023/01/27 04:08:59;;;;;;;22.33;11.93;;;;;;;;;;4992777;28;20384;-90
2023/01/27 04:14:11;;;;;;;28.42;14.65;;;;;;;;;;4996613;28;20088;-88
2023/01/27 04:16:37;;;;;;;25.55;13.13;;;;;;;;;;4984151;28;20042;-87
2023/01/27 04:19:07;;;;;;;26.45;13.82;;;;;;;;;;4985906;28;20026;-92
2023/01/27 04:21:34;;;;;;;24.02;12.77;;;;;;;;;;4980012;28;20396;-91
2023/01/27 04:24:00;;;;;;;22.35;11.82;;;;;;;;;;4979046;28;20050;-89
2023/01/27 04:26:33;;;;;;;21.90;11.68;;;;;;;;;;4980079;28;20128;-90
2023/01/27 04:29:03;;;;;;;28.00;13.90;;;;;;;;;;4980131;28;20057;-88
2023/01/27 04:31:31;;;;;;;26.95;14.18;;;;;;;;;;4993644;28;20022;-87
2023/01/27 04:33:57;;;;;;;23.92;13.48;;;;;;;;;;4980721;28;20041;-88
2023/01/27 04:36:23;;;;;;;25.27;12.93;;;;;;;;;;4978715;28;20041;-86
2023/01/27 04:38:49;;;;;;;25.27;12.93;;;;;;;;;;4980155;28;20479;-87
2023/01/27 04:41:15;;;;;;;23.90;12.48;;;;;;;;;;5009000;28;20027;-91
2023/01/27 04:43:42;;;;;;;22.83;11.25;;;;;;;;;;4983998;28;20030;-87
2023/01/27 04:46:08;;;;;;;22.80;12.20;;;;;;;;;;4978738;28;20121;-87
2023/01/27 04:48:37;;;;;;;25.25;13.27;;;;;;;;;;4978664;28;20038;-91
2023/01/27 04:51:06;;;;;;;26.48;14.63;;;;;;;;;;4977786;28;20022;-89
2023/01/27 04:54:06;;;;;;;28.60;15.07;;;;;;;;;;4978448;28;20026;-91
2023/01/27 05:02:05;;;;;;;25.27;12.95;;;;;;;;;;4992719;28;20117;-87
2023/01/27 05:04:34;;;;;;;28.15;14.52;;;;;;;;;;4977895;28;20034;-90
2023/01/27 05:07:01;;;;;;;23.88;12.88;;;;;;;;;;4977579;28;20415;-86
2023/01/27 05:09:27;;;;;;;25.88;13.40;;;;;;;;;;4978059;28;20066;-89
2023/01/27 05:11:53;;;;;;;26.17;13.88;;;;;;;;;;4977997;28;20026;-88
2023/01/27 05:14:22;;;;;;;27.48;14.70;;;;;;;;;;4977490;28;20033;-88
2023/01/27 05:16:48;;;;;;;25.92;14.35;;;;;;;;;;4977638;28;20041;-88
2023/01/27 05:19:14;;;;;;;26.55;14.15;;;;;;;;;;4977815;28;20488;-88
2023/01/27 05:21:42;;;;;;;24.75;12.95;;;;;;;;;;4977960;28;20022;-86
2023/01/27 05:24:09;;;;;;;25.10;12.75;;;;;;;;;;4976512;28;20023;-88
2023/01/27 05:26:35;;;;;;;26.08;13.63;;;;;;;;;;4995001;28;20118;-90
2023/01/27 05:29:01;;;;;;;23.38;12.95;;;;;;;;;;4977327;28;20026;-87
2023/01/27 05:31:30;;;;;;;25.80;13.00;;;;;;;;;;4977504;28;20027;-86
2023/01/27 05:34:03;;;;;;;23.58;12.93;;;;;;;;;;4977385;28;20033;-88
2023/01/27 05:36:30;;;;;;;23.05;12.02;;;;;;;;;;4977456;28;20046;-92
2023/01/27 05:38:59;;;;;;;22.08;11.93;;;;;;;;;;4977029;28;20036;-89
2023/01/27 05:41:25;;;;;;;22.60;12.15;;;;;;;;;;4977239;28;20033;-86
2023/01/27 05:43:53;;;;;;;23.98;12.95;;;;;;;;;;4977460;28;20027;-86
2023/01/27 05:46:20;;;;;;;24.25;12.70;;;;;;;;;;4976851;28;20061;-87
2023/01/27 05:48:48;;;;;;;23.35;12.23;;;;;;;;;;4977706;28;20115;-88
2023/01/27 05:51:14;;;;;;;23.75;12.80;;;;;;;;;;4977120;28;20133;-86
2023/01/27 05:53:40;;;;;;;21.60;12.82;;;;;;;;;;4977704;28;20510;-86
2023/01/27 05:56:13;;;;;;;20.55;12.07;;;;;;;;;;4980509;28;20038;-88
2023/01/27 05:58:39;;;;;;;22.35;11.80;;;;;;;;;;4999283;28;20037;-89
2023/01/27 06:01:26;;;;;;;21.17;11.68;;;;;;;;;;4964893;28;20046;-88
2023/01/27 06:06:45;;;;;;;21.80;12.77;;;;;;;;;;4996506;28;20041;-86
2023/01/27 06:09:11;;;;;;;23.58;12.90;;;;;;;;;;4978449;28;20033;-87
2023/01/27 06:11:40;;;;;;;23.63;11.55;;;;;;;;;;4979679;28;20524;-92
2023/01/27 06:14:06;;;;;;;23.40;11.88;;;;;;;;;;4979326;28;20027;-85
2023/01/27 06:16:32;;;;;;;22.70;12.20;;;;;;;;;;4979364;28;20409;-87
2023/01/27 06:19:02;;;;;;;25.63;12.85;;;;;;;;;;4979790;28;20201;-91
2023/01/27 06:21:36;;;;;;;23.58;12.40;;;;;;;;;;4980363;28;20030;-90
2023/01/27 06:24:06;;;;;;;21.30;11.52;;;;;;;;;;4993709;28;20035;-87
2023/01/27 06:26:32;;;;;;;27.00;14.80;;;;;;;;;;4984712;28;20475;-87
2023/01/27 06:31:55;;;;;;;24.73;13.55;;;;;;;;;;4944765;29;20070;-94
2023/01/27 06:40:22;;;;;;;27.67;13.63;;;;;;;;;;5010596;23;20578;-90
2023/01/27 06:42:48;;;;;;;33.67;20.48;;;;;;;;;;5028266;23;20033;-85
2023/01/27 06:45:15;;;;;;;24.92;15.07;;;;;;;;;;4975545;28;20381;-88
2023/01/27 06:50:30;;;;;;;25.48;13.40;;;;;;;;;;5030982;23;20055;-89
2023/01/27 06:55:44;;;;;;;25.95;13.43;;;;;;;;;;5063997;23;20098;-89
2023/01/27 06:58:17;;;;;;;22.33;12.50;;;;;;;;;;4956565;28;20109;-90
2023/01/27 07:01:05;;;;;;;27.48;13.00;;;;;;;;;;4956995;28;20027;-91
2023/01/27 07:07:05;;;;;;;25.08;12.20;;;;;;;;;;4974099;28;20066;-87
2023/01/27 07:12:25;;;;;;;29.38;14.05;;;;;;;;;;4977203;28;20112;-89
2023/01/27 07:14:54;;;;;;;25.65;13.10;;;;;;;;;;4958525;28;20501;-90
2023/01/27 07:17:29;;;;;;;29.33;15.40;;;;;;;;;;4960236;28;20026;-89
2023/01/27 07:20:30;;;;;;;31.95;15.73;;;;;;;;;;4958326;28;20026;-89
2023/01/27 07:23:05;;;;;;;26.67;14.80;;;;;;;;;;4945720;29;20031;-89
2023/01/27 07:25:59;;;;;;;24.85;14.00;;;;;;;;;;4956650;28;20038;-84
2023/01/27 07:28:47;;;;;;;31.30;15.25;;;;;;;;;;5025325;23;20137;-87
2023/01/27 07:31:19;;;;;;;33.13;16.52;;;;;;;;;;4958431;28;20053;-88
2023/01/27 07:36:20;;;;;;;25.80;14.32;;;;;;;;;;6071419;23;20020;-89
2023/01/27 07:38:53;;;;;;;26.40;14.35;;;;;;;;;;4977471;28;20034;-89
2023/01/27 07:41:19;;;;;;;25.77;13.70;;;;;;;;;;4958626;28;20039;-86
2023/01/27 07:43:47;;;;;;;24.75;13.75;;;;;;;;;;4958326;28;20038;-88
2023/01/27 07:46:16;;;;;;;26.58;14.18;;;;;;;;;;4957167;28;20436;-85
2023/01/27 07:48:45;;;;;;;27.60;14.20;;;;;;;;;;4957845;28;20023;-88
2023/01/27 07:51:40;;;;;;;31.65;15.73;;;;;;;;;;4958066;28;20027;-89
2023/01/27 07:54:06;;;;;;;27.05;13.32;;;;;;;;;;4959143;28;20042;-90
2023/01/27 07:56:35;;;;;;;28.23;14.60;;;;;;;;;;4965847;28;20035;-90
2023/01/27 07:59:07;;;;;;;25.85;14.10;;;;;;;;;;4944708;28;20034;-94
2023/01/27 08:01:33;;;;;;;25.52;14.20;;;;;;;;;;4964595;28;20042;-89
2023/01/27 08:04:14;;;;;;;22.25;12.30;;;;;;;;;;4961153;28;20031;-91
2023/01/27 08:06:40;;;;;;;29.58;13.55;;;;;;;;;;4967943;28;20031;-86
2023/01/27 08:09:18;;;;;;;27.55;14.63;;;;;;;;;;4965037;28;20023;-88
2023/01/27 08:11:48;;;;;;;32.05;15.88;;;;;;;;;;4959790;28;20035;-89
2023/01/27 08:14:35;;;;;;;91.72;46.22;;;;;;;;;;4958523;28;20068;-89
2023/01/27 08:17:04;;;;;;;30.35;15.57;;;;;;;;;;4967243;28;20086;-89
2023/01/27 08:19:30;;;;;;;26.40;14.68;;;;;;;;;;4973738;28;20027;-89
2023/01/27 08:21:56;;;;;;;27.83;15.73;;;;;;;;;;4967322;28;20030;-87
2023/01/27 08:24:22;;;;;;;25.65;15.00;;;;;;;;;;4958196;28;20169;-88
2023/01/27 08:26:58;;;;;;;30.33;15.70;;;;;;;;;;4958565;28;20034;-89
2023/01/27 08:29:24;;;;;;;28.73;14.75;;;;;;;;;;4960132;28;20030;-88
2023/01/27 08:31:51;;;;;;;26.05;14.65;;;;;;;;;;4976568;28;20390;-85
2023/01/27 08:34:17;;;;;;;27.40;15.30;;;;;;;;;;4977015;28;20026;-85
2023/01/27 08:36:52;;;;;;;28.55;14.80;;;;;;;;;;4992553;28;20058;-87
2023/01/27 08:39:21;;;;;;;30.63;15.65;;;;;;;;;;4976832;28;20035;-88
2023/01/27 08:41:47;;;;;;;30.60;15.23;;;;;;;;;;4976931;28;20027;-83
2023/01/27 08:44:13;;;;;;;32.45;15.98;;;;;;;;;;4976793;28;20360;-87
2023/01/27 08:46:39;;;;;;;28.80;15.15;;;;;;;;;;4976853;28;20117;-85
2023/01/27 08:49:08;;;;;;;28.98;15.93;;;;;;;;;;4976882;28;20122;-88
2023/01/27 08:51:37;;;;;;;37.78;16.98;;;;;;;;;;4976755;28;20024;-85
2023/01/27 08:54:09;;;;;;;30.73;16.27;;;;;;;;;;4976986;28;20040;-89
2023/01/27 08:56:38;;;;;;;29.73;15.35;;;;;;;;;;4976932;28;20483;-86
2023/01/27 08:59:10;;;;;;;31.80;16.70;;;;;;;;;;4979718;28;20046;-85
2023/01/27 09:01:40;;;;;;;29.70;15.95;;;;;;;;;;4981005;28;20041;-88
2023/01/27 09:15:24;;;;;;;31.15;16.63;;;;;;;;;;4976515;28;20110;-89
2023/01/27 09:18:25;;;;;;;29.75;15.52;;;;;;;;;;4979378;23;20821;-90
2023/01/27 09:20:54;;;;;;;28.05;14.93;;;;;;;;;;4960657;28;20440;-90
2023/01/27 09:26:31;;;;;;;31.73;15.82;;;;;;;;;;4978225;28;20034;-89
2023/01/27 09:29:00;;;;;;;;;;;;;;;;;;4962987;28;20035;-88
2023/01/27 09:31:35;;;;;;;32.85;15.60;;;;;;;;;;4975160;28;19910;-85
2023/01/27 09:34:01;;;;;;;36.30;19.25;;;;;;;;;;4975094;28;20113;-88
2023/01/27 09:39:46;;;;;;;34.95;17.60;;;;;;;;;;4979104;28;20045;-90
2023/01/27 09:42:21;;;;;;;33.70;16.58;;;;;;;;;;4883291;29;20039;-89
2023/01/27 09:44:56;;;;;;;35.03;18.15;;;;;;;;;;4951499;29;20031;-89
2023/01/27 09:47:41;;;;;;;32.95;17.10;;;;;;;;;;4954694;29;20058;-89
2023/01/27 09:50:17;;;;;;;33.22;16.27;;;;;;;;;;4951357;29;20035;-88
2023/01/27 09:53:06;;;;;;;36.92;18.00;;;;;;;;;;4953459;29;20027;-88
2023/01/27 10:07:58;;;;;;;31.02;17.65;;;;;;;;;;5034758;23;20066;-87
2023/01/27 10:19:31;;;;;;;33.30;16.55;;;;;;;;;;5001436;28;20044;-88
2023/01/27 10:22:19;;;;;;;29.17;16.17;;;;;;;;;;4968176;28;20030;-88
2023/01/27 10:25:00;;;;;;;32.88;16.77;;;;;;;;;;4980080;28;20025;-88
2023/01/27 10:27:30;;;;;;;32.38;16.60;;;;;;;;;;4962660;28;20578;-88
2023/01/27 10:30:08;;;;;;;38.35;18.70;;;;;;;;;;4983119;28;20062;-87
2023/01/27 10:32:41;;;;;;;29.60;16.67;;;;;;;;;;4977157;28;20034;-86
2023/01/27 10:35:16;;;;;;;28.98;15.80;;;;;;;;;;4957467;28;20085;-87
2023/01/27 10:38:13;;;;;;;31.80;16.83;;;;;;;;;;4976773;28;20022;-86
2023/01/27 10:40:59;;;;;;;28.25;15.75;;;;;;;;;;4950702;28;20211;-88
2023/01/27 10:43:31;;;;;;;31.80;17.00;;;;;;;;;;4974417;28;20026;-88
2023/01/27 10:46:16;;;;;;;31.08;17.02;;;;;;;;;;4958435;28;20113;-87
2023/01/27 10:49:01;;;;;;;92.88;46.40;;;;;;;;;;4974197;28;20029;-89
2023/01/27 10:51:33;;;;;;;40.03;22.70;;;;;;;;;;4977905;28;20443;-86
2023/01/27 10:54:21;;;;;;;35.35;19.17;;;;;;;;;;4966503;28;20054;-88
2023/01/27 10:56:56;;;;;;;35.92;18.15;;;;;;;;;;4980896;28;20042;-88
2023/01/27 10:59:37;;;;;;;31.85;17.90;;;;;;;;;;4973856;28;20530;-87
2023/01/27 11:02:12;;;;;;;31.85;18.17;;;;;;;;;;4960204;28;20031;-86
2023/01/27 11:04:46;;;;;;;54.05;28.02;;;;;;;;;;4970782;28;20495;-85
2023/01/27 11:07:19;;;;;;;145.02;69.28;;;;;;;;;;4957762;28;20026;-86
2023/01/27 11:10:04;;;;;;;37.25;21.20;;;;;;;;;;4973976;28;20037;-87
2023/01/27 11:12:40;;;;;;;41.55;21.85;;;;;;;;;;4972524;28;20120;-85
2023/01/27 11:15:33;;;;;;;37.75;20.58;;;;;;;;;;4967183;28;20897;-87
2023/01/27 11:18:17;;;;;;;39.65;21.30;;;;;;;;;;4977577;28;20034;-89
2023/01/27 11:20:48;;;;;;;38.15;21.38;;;;;;;;;;4966366;28;20026;-90
2023/01/27 11:23:34;;;;;;;71.38;42.58;;;;;;;;;;4968019;28;20396;-87
2023/01/27 11:26:07;;;;;;;104.32;58.38;;;;;;;;;;4973262;28;20053;-87
2023/01/27 11:28:58;;;;;;;79.25;47.08;;;;;;;;;;4963170;28;20042;-91
2023/01/27 11:34:36;;;;;;;40.53;21.23;;;;;;;;;;5074544;23;20069;-89
2023/01/27 11:37:12;;;;;;;40.22;23.48;;;;;;;;;;4997863;28;20042;-92
2023/01/27 11:39:41;;;;;;;42.38;22.33;;;;;;;;;;5004669;28;20029;-87
2023/01/27 11:42:09;;;;;;;43.30;22.55;;;;;;;;;;5004773;28;20058;-92
2023/01/27 11:44:39;;;;;;;39.63;21.27;;;;;;;;;;4999151;28;20076;-89
2023/01/27 11:47:09;;;;;;;42.17;22.05;;;;;;;;;;4995347;28;20037;-85
2023/01/27 11:49:52;;;;;;;46.95;24.52;;;;;;;;;;4996694;28;20029;-89
2023/01/27 11:52:27;;;;;;;48.47;23.90;;;;;;;;;;4996324;28;20488;-87
2023/01/27 11:55:03;;;;;;;87.70;49.92;;;;;;;;;;4980809;28;20056;-86
2023/01/27 11:57:29;;;;;;;56.53;31.20;;;;;;;;;;5013839;28;20026;-87
2023/01/27 12:00:18;;;;;;;50.55;26.17;;;;;;;;;;4995442;28;20041;-87
2023/01/27 12:02:54;;;;;;;51.35;26.70;;;;;;;;;;4956906;28;20026;-87
2023/01/27 12:05:37;;;;;;;78.13;42.92;;;;;;;;;;4984370;28;20046;-87
2023/01/27 12:08:04;;;;;;;50.38;26.77;;;;;;;;;;4997271;28;20069;-83
2023/01/27 12:13:31;;;;;;;61.88;34.85;;;;;;;;;;5100370;23;20058;-88
2023/01/27 12:16:01;;;;;;;72.75;39.00;;;;;;;;;;4976110;28;20126;-84
2023/01/27 12:18:34;;;;;;;53.65;27.92;;;;;;;;;;4962176;28;20023;-87
2023/01/27 12:21:09;;;;;;;51.35;27.55;;;;;;;;;;4976712;28;20027;-89
2023/01/27 12:24:07;;;;;;;50.78;25.65;;;;;;;;;;4977097;28;20091;-88
2023/01/27 12:26:40;;;;;;;47.85;25.52;;;;;;;;;;4880625;29;20036;-87
2023/01/27 12:29:18;;;;;;;52.05;25.50;;;;;;;;;;4897798;28;20046;-88
2023/01/27 12:32:06;;;;;;;54.42;25.75;;;;;;;;;;4976831;28;20030;-89
2023/01/27 12:34:39;;;;;;;48.10;24.75;;;;;;;;;;4970942;28;20632;-95
2023/01/27 12:43:19;;;;;;;54.67;25.00;;;;;;;;;;4997878;28;20261;-92
2023/01/27 12:51:53;;;;;;;;;;;;;;;;;;;;;
2023/01/27 12:56:54;;;;;;;53.85;26.65;;;;;;;;;;4914728;29;20589;-92
2023/01/27 13:10:34;;;;;;;58.17;28.02;;;;;;;;;;5147168;23;20133;-91
2023/01/27 13:13:20;;;;;;;54.42;27.75;;;;;;;;;;4977209;28;20039;-92
2023/01/27 13:15:54;;;;;;;57.03;28.00;;;;;;;;;;4988925;28;20046;-89
2023/01/27 13:18:21;;;;;;;55.97;28.25;;;;;;;;;;4980794;28;20033;-88
2023/01/27 13:21:15;;;;;;;59.60;29.20;;;;;;;;;;4978392;28;20077;-94
2023/01/27 13:23:50;;;;;;;54.95;27.35;;;;;;;;;;4979981;28;20101;-93
2023/01/27 13:29:32;;;;;;;56.33;27.60;;;;;;;;;;5038068;23;20077;-95
2023/01/27 13:32:14;;;;;;;56.83;25.55;;;;;;;;;;4997950;28;20034;-94
2023/01/27 13:34:51;;;;;;;52.00;26.30;;;;;;;;;;4979529;28;20027;-93
2023/01/27 13:37:39;;;;;;;59.10;27.65;;;;;;;;;;4962879;28;20030;-95
2023/01/27 13:51:58;;;;;;;61.65;28.25;;;;;;;;;;5202640;23;20511;-92
2023/01/27 13:54:29;;;;;;;57.67;27.90;;;;;;;;;;4960655;28;20038;-86
2023/01/27 13:57:23;;;;;;;56.25;30.02;;;;;;;;;;4986005;28;20039;-87
2023/01/27 14:00:30;;;;;;;53.53;26.27;;;;;;;;;;4963467;28;20023;-86
2023/01/27 14:03:08;;;;;;;56.83;27.58;;;;;;;;;;4899150;29;20028;-88
2023/01/27 14:05:56;;;;;;;57.55;27.60;;;;;;;;;;4933573;28;20094;-87
2023/01/27 14:08:41;;;;;;;59.67;28.67;;;;;;;;;;4959443;28;20109;-87
2023/01/27 14:11:26;;;;;;;61.15;29.17;;;;;;;;;;4959564;28;20095;-87
2023/01/27 14:14:18;;;;;;;62.47;29.67;;;;;;;;;;4959484;28;20027;-87
2023/01/27 14:17:06;;;;;;;57.72;30.02;;;;;;;;;;4959717;28;20082;-86
2023/01/27 14:22:45;;;;;;;58.90;28.37;;;;;;;;;;4976767;28;20077;-87
2023/01/27 14:25:30;;;;;;;55.38;28.30;;;;;;;;;;4962532;28;20437;-87
2023/01/27 14:28:14;;;;;;;57.78;30.10;;;;;;;;;;4978688;28;20404;-87
2023/01/27 14:30:54;;;;;;;59.13;28.83;;;;;;;;;;4978653;28;20115;-87
2023/01/27 14:33:38;;;;;;;61.97;30.58;;;;;;;;;;4978462;28;20023;-87
2023/01/27 14:36:10;;;;;;;63.83;29.85;;;;;;;;;;4979214;28;20064;-87
2023/01/27 14:38:59;;;;;;;57.08;30.48;;;;;;;;;;4978682;28;20023;-87
2023/01/27 14:41:35;;;;;;;58.60;29.98;;;;;;;;;;4955809;28;20463;-86
2023/01/27 14:44:21;;;;;;;55.35;28.33;;;;;;;;;;4978223;28;20096;-86
2023/01/27 14:46:56;;;;;;;55.75;28.83;;;;;;;;;;4978473;28;20058;-87
2023/01/27 14:49:39;;;;;;;55.15;27.83;;;;;;;;;;4978529;28;20033;-87
2023/01/27 14:52:14;;;;;;;57.67;28.73;;;;;;;;;;4978345;28;20109;-87
2023/01/27 14:54:49;;;;;;;55.15;28.65;;;;;;;;;;4978553;28;20399;-87
2023/01/27 14:57:37;;;;;;;57.55;28.95;;;;;;;;;;4977836;28;20129;-87
2023/01/27 15:00:13;;;;;;;59.83;29.40;;;;;;;;;;4978149;28;20026;-86
2023/01/27 15:02:58;;;;;;;62.50;29.83;;;;;;;;;;4978260;28;20018;-87
2023/01/27 15:05:31;;;;;;;60.63;30.58;;;;;;;;;;4978702;28;20037;-86
2023/01/27 15:08:03;;;;;;;58.95;30.40;;;;;;;;;;4981775;28;20022;-87
2023/01/27 15:10:30;;;;;;;57.80;28.65;;;;;;;;;;4980360;28;20038;-87
2023/01/27 15:13:16;;;;;;;56.05;28.60;;;;;;;;;;4977709;28;20022;-86
2023/01/27 15:15:51;;;;;;;59.17;30.75;;;;;;;;;;4978113;28;20038;-87
2023/01/27 15:18:38;;;;;;;56.08;28.05;;;;;;;;;;4978322;28;20030;-86
2023/01/27 15:21:10;;;;;;;62.15;30.15;;;;;;;;;;4981116;28;20112;-87
2023/01/27 15:23:48;;;;;;;52.70;27.20;;;;;;;;;;4980223;28;20034;-87
2023/01/27 15:26:17;;;;;;;65.72;30.58;;;;;;;;;;4977584;28;20026;-86
2023/01/27 15:28:46;;;;;;;58.72;30.38;;;;;;;;;;4977339;28;20022;-87
2023/01/27 15:31:20;;;;;;;66.43;32.17;;;;;;;;;;4994453;28;20022;-87
2023/01/27 15:34:11;;;;;;;70.25;33.22;;;;;;;;;;4994332;28;20049;-89
2023/01/27 15:36:41;;;;;;;61.60;29.65;;;;;;;;;;4976937;28;20483;-89
2023/01/27 15:39:07;;;;;;;59.85;30.27;;;;;;;;;;4977257;28;20022;-90
2023/01/27 15:44:47;;;;;;;55.70;28.10;;;;;;;;;;4994761;28;20033;-90
2023/01/27 15:47:20;;;;;;;60.05;30.92;;;;;;;;;;4977554;28;20039;-86
2023/01/27 15:56:08;;;;;;;59.15;30.13;;;;;;;;;;4994452;28;20057;-86
2023/01/27 15:58:50;;;;;;;58.58;30.38;;;;;;;;;;4977067;28;20031;-90
2023/01/27 16:01:28;;;;;;;60.80;30.58;;;;;;;;;;4977006;28;20568;-91
2023/01/27 16:04:26;;;;;;;57.08;29.45;;;;;;;;;;4977273;28;20035;-88
2023/01/27 16:07:02;;;;;;;51.97;27.17;;;;;;;;;;4910673;28;20042;-90
2023/01/27 16:09:31;;;;;;;56.25;27.92;;;;;;;;;;4981775;28;20106;-87
2023/01/27 16:12:14;;;;;;;61.30;30.95;;;;;;;;;;4988469;28;20080;-92
2023/01/27 16:14:59;;;;;;;63.63;30.60;;;;;;;;;;4986548;28;20023;-90
2023/01/27 16:17:54;;;;;;;68.28;33.05;;;;;;;;;;4982144;28;20106;-90
2023/01/27 16:20:41;;;;;;;65.78;31.85;;;;;;;;;;4981294;28;20438;-86
2023/01/27 16:26:31;;;;;;;57.15;28.98;;;;;;;;;;4998753;28;20057;-88
2023/01/27 16:29:25;;;;;;;55.75;29.10;;;;;;;;;;4981019;28;20030;-87
2023/01/27 16:31:52;;;;;;;52.38;27.55;;;;;;;;;;4980714;28;20037;-87
2023/01/27 16:34:24;;;;;;;57.95;30.05;;;;;;;;;;4998104;28;20037;-84
2023/01/27 16:40:22;;;;;;;53.47;25.75;;;;;;;;;;4998517;28;20045;-88
2023/01/27 16:45:36;;;;;;;59.22;28.70;;;;;;;;;;4956254;28;20043;-87
2023/01/27 16:48:14;;;;;;;57.80;28.75;;;;;;;;;;4938851;29;20031;-86
2023/01/27 16:53:36;;;;;;;65.50;31.02;;;;;;;;;;4900753;29;20041;-87
2023/01/27 17:02:23;;;;;;;53.40;27.80;;;;;;;;;;4898229;29;20035;-86
2023/01/27 17:04:51;;;;;;;57.38;28.08;;;;;;;;;;4865201;29;20040;-82
2023/01/27 17:07:30;;;;;;;56.22;27.80;;;;;;;;;;4880737;29;20044;-87
2023/01/27 17:10:12;;;;;;;55.75;29.33;;;;;;;;;;4865660;29;20032;-91
2023/01/27 17:12:44;;;;;;;66.28;30.10;;;;;;;;;;4865326;29;20406;-89
2023/01/27 17:15:24;;;;;;;57.75;27.95;;;;;;;;;;4864527;29;20123;-91
2023/01/27 17:17:59;;;;;;;57.53;26.88;;;;;;;;;;4865252;29;20053;-91
2023/01/27 17:20:32;;;;;;;55.63;27.85;;;;;;;;;;4869099;29;20039;-91
2023/01/27 17:25:50;;;;;;;52.55;26.60;;;;;;;;;;4956841;28;20082;-93
2023/01/27 17:28:41;;;;;;;49.17;24.52;;;;;;;;;;4941082;29;20118;-90
2023/01/27 17:31:08;;;;;;;58.28;28.42;;;;;;;;;;4924101;29;20098;-92
2023/01/27 17:34:16;;;;;;;58.60;29.55;;;;;;;;;;4938265;29;20139;-93
2023/01/27 17:43:05;;;;;;;50.53;25.08;;;;;;;;;;4901999;29;20451;-92
2023/01/27 17:45:37;;;;;;;51.25;26.00;;;;;;;;;;4884347;29;20045;-90
2023/01/27 17:48:14;;;;;;;56.40;26.40;;;;;;;;;;4883482;29;20249;-93
2023/01/27 17:50:56;;;;;;;51.53;27.05;;;;;;;;;;4880173;29;20121;-92
2023/01/27 17:53:31;;;;;;;54.33;27.20;;;;;;;;;;4907970;29;20039;-94
2023/01/27 17:56:09;;;;;;;57.88;28.02;;;;;;;;;;4903081;29;20051;-89
2023/01/27 17:58:35;;;;;;;63.88;28.67;;;;;;;;;;4908631;29;20046;-90
2023/01/27 18:01:11;;;;;;;61.13;30.27;;;;;;;;;;4909919;29;20100;-90
2023/01/27 18:03:48;;;;;;;71.68;33.33;;;;;;;;;;4902365;29;20037;-88
2023/01/27 18:06:21;;;;;;;53.83;27.95;;;;;;;;;;4917538;29;20040;-88
2023/01/27 18:08:51;;;;;;;57.90;28.27;;;;;;;;;;4902077;29;20055;-88